sensor_id;sensor_type;location;lat;lon;timestamp;P1;durP1;ratioP1;P2;durP2;ratioP2
42066;SDS011;27734;47.028;28.820;2023-05-18T00:02:21;9.93;;;3.90;;
42066;SDS011;27734;47.028;28.820;2023-05-18T00:04:52;10.23;;;3.90;;
42066;SDS011;27734;47.028;28.820;2023-05-18T00:07:20;10.50;;;4.10;;
42066;SDS011;27734;47.028;28.820;2023-05-18T00:09:49;10.13;;;4.10;;
42066;SDS011;27734;47.028;28.820;2023-05-18T00:12:17;9.60;;;3.80;;
42066;SDS011;27734;47.028;28.820;2023-05-18T00:14:46;10.83;;;4.33;;
42066;SDS011;27734;47.028;28.820;2023-05-18T00:17:14;9.60;;;3.67;;
42066;SDS011;27734;47.028;28.820;2023-05-18T00:19:43;8.90;;;3.60;;
42066;SDS011;27734;47.028;28.820;2023-05-18T00:22:12;8.30;;;3.83;;
42066;SDS011;27734;47.028;28.820;2023-05-18T00:24:43;9.17;;;3.53;;
42066;SDS011;27734;47.028;28.820;2023-05-18T00:27:12;9.10;;;3.57;;
42066;SDS011;27734;47.028;28.820;2023-05-18T00:29:41;8.27;;;3.80;;
42066;SDS011;27734;47.028;28.820;2023-05-18T00:32:12;10.93;;;3.97;;
42066;SDS011;27734;47.028;28.820;2023-05-18T00:34:40;8.73;;;3.77;;
42066;SDS011;27734;47.028;28.820;2023-05-18T00:37:09;10.00;;;3.70;;
42066;SDS011;27734;47.028;28.820;2023-05-18T00:39:37;6.53;;;3.80;;
42066;SDS011;27734;47.028;28.820;2023-05-18T00:42:06;8.93;;;3.70;;
42066;SDS011;27734;47.028;28.820;2023-05-18T00:44:34;10.57;;;4.23;;
42066;SDS011;27734;47.028;28.820;2023-05-18T00:47:03;9.87;;;3.50;;
42066;SDS011;27734;47.028;28.820;2023-05-18T00:49:32;10.87;;;3.80;;
42066;SDS011;27734;47.028;28.820;2023-05-18T00:52:01;12.63;;;4.07;;
42066;SDS011;27734;47.028;28.820;2023-05-18T00:54:31;9.47;;;3.60;;
42066;SDS011;27734;47.028;28.820;2023-05-18T00:57:00;7.30;;;3.77;;
42066;SDS011;27734;47.028;28.820;2023-05-18T00:59:30;10.13;;;4.20;;
42066;SDS011;27734;47.028;28.820;2023-05-18T01:02:00;8.67;;;4.07;;
42066;SDS011;27734;47.028;28.820;2023-05-18T01:04:29;18.50;;;4.40;;
42066;SDS011;27734;47.028;28.820;2023-05-18T01:06:58;13.23;;;4.50;;
42066;SDS011;27734;47.028;28.820;2023-05-18T01:09:32;10.80;;;4.47;;
42066;SDS011;27734;47.028;28.820;2023-05-18T01:12:04;14.33;;;4.50;;
42066;SDS011;27734;47.028;28.820;2023-05-18T01:14:40;8.97;;;4.60;;
42066;SDS011;27734;47.028;28.820;2023-05-18T01:17:15;12.53;;;4.47;;
42066;SDS011;27734;47.028;28.820;2023-05-18T01:20:05;12.73;;;4.93;;
42066;SDS011;27734;47.028;28.820;2023-05-18T01:23:00;12.37;;;4.60;;
42066;SDS011;27734;47.028;28.820;2023-05-18T01:25:44;12.20;;;4.43;;
42066;SDS011;27734;47.028;28.820;2023-05-18T01:28:17;10.65;;;4.45;;
42066;SDS011;27734;47.028;28.820;2023-05-18T01:30:47;8.87;;;4.33;;
42066;SDS011;27734;47.028;28.820;2023-05-18T01:33:17;10.40;;;4.67;;
42066;SDS011;27734;47.028;28.820;2023-05-18T01:35:45;11.90;;;4.67;;
42066;SDS011;27734;47.028;28.820;2023-05-18T01:38:14;9.27;;;4.10;;
42066;SDS011;27734;47.028;28.820;2023-05-18T01:40:51;11.60;;;4.70;;
42066;SDS011;27734;47.028;28.820;2023-05-18T01:43:25;9.30;;;4.30;;
42066;SDS011;27734;47.028;28.820;2023-05-18T01:46:00;9.13;;;4.17;;
42066;SDS011;27734;47.028;28.820;2023-05-18T01:48:36;10.00;;;4.40;;
42066;SDS011;27734;47.028;28.820;2023-05-18T01:51:09;14.63;;;4.63;;
42066;SDS011;27734;47.028;28.820;2023-05-18T01:53:42;14.07;;;4.50;;
42066;SDS011;27734;47.028;28.820;2023-05-18T01:56:17;10.17;;;4.13;;
42066;SDS011;27734;47.028;28.820;2023-05-18T01:58:47;12.17;;;4.63;;
42066;SDS011;27734;47.028;28.820;2023-05-18T02:01:16;13.00;;;4.00;;
42066;SDS011;27734;47.028;28.820;2023-05-18T02:03:48;11.20;;;4.60;;
42066;SDS011;27734;47.028;28.820;2023-05-18T02:06:17;13.23;;;4.70;;
42066;SDS011;27734;47.028;28.820;2023-05-18T02:08:46;9.20;;;4.15;;
42066;SDS011;27734;47.028;28.820;2023-05-18T02:11:14;10.93;;;4.80;;
42066;SDS011;27734;47.028;28.820;2023-05-18T02:13:43;11.87;;;4.60;;
42066;SDS011;27734;47.028;28.820;2023-05-18T02:16:12;9.13;;;4.13;;
42066;SDS011;27734;47.028;28.820;2023-05-18T02:18:40;9.50;;;4.67;;
42066;SDS011;27734;47.028;28.820;2023-05-18T02:21:10;8.47;;;4.50;;
42066;SDS011;27734;47.028;28.820;2023-05-18T02:23:39;12.33;;;4.37;;
42066;SDS011;27734;47.028;28.820;2023-05-18T02:26:08;11.27;;;4.50;;
42066;SDS011;27734;47.028;28.820;2023-05-18T02:28:37;10.33;;;4.87;;
42066;SDS011;27734;47.028;28.820;2023-05-18T02:31:07;8.97;;;4.80;;
42066;SDS011;27734;47.028;28.820;2023-05-18T02:33:37;11.67;;;5.20;;
42066;SDS011;27734;47.028;28.820;2023-05-18T02:36:10;10.73;;;4.90;;
42066;SDS011;27734;47.028;28.820;2023-05-18T02:38:39;17.40;;;5.27;;
42066;SDS011;27734;47.028;28.820;2023-05-18T02:41:09;16.95;;;5.10;;
42066;SDS011;27734;47.028;28.820;2023-05-18T02:43:38;13.47;;;5.07;;
42066;SDS011;27734;47.028;28.820;2023-05-18T02:46:09;18.77;;;5.47;;
42066;SDS011;27734;47.028;28.820;2023-05-18T02:48:38;12.73;;;5.00;;
42066;SDS011;27734;47.028;28.820;2023-05-18T02:51:12;13.50;;;5.33;;
42066;SDS011;27734;47.028;28.820;2023-05-18T02:53:40;8.93;;;5.17;;
42066;SDS011;27734;47.028;28.820;2023-05-18T02:56:11;14.30;;;5.60;;
42066;SDS011;27734;47.028;28.820;2023-05-18T02:58:46;10.55;;;5.00;;
42066;SDS011;27734;47.028;28.820;2023-05-18T03:01:25;13.17;;;5.53;;
42066;SDS011;27734;47.028;28.820;2023-05-18T03:03:53;11.10;;;4.90;;
42066;SDS011;27734;47.028;28.820;2023-05-18T03:06:24;14.33;;;5.13;;
42066;SDS011;27734;47.028;28.820;2023-05-18T03:08:53;11.60;;;5.23;;
42066;SDS011;27734;47.028;28.820;2023-05-18T03:11:25;12.33;;;5.17;;
42066;SDS011;27734;47.028;28.820;2023-05-18T03:13:54;12.33;;;5.40;;
42066;SDS011;27734;47.028;28.820;2023-05-18T03:16:23;16.45;;;5.65;;
42066;SDS011;27734;47.028;28.820;2023-05-18T03:18:54;16.27;;;5.63;;
42066;SDS011;27734;47.028;28.820;2023-05-18T03:21:25;14.60;;;5.43;;
42066;SDS011;27734;47.028;28.820;2023-05-18T03:24:00;11.37;;;5.20;;
42066;SDS011;27734;47.028;28.820;2023-05-18T03:26:29;12.17;;;5.57;;
42066;SDS011;27734;47.028;28.820;2023-05-18T03:28:57;12.00;;;5.33;;
42066;SDS011;27734;47.028;28.820;2023-05-18T03:31:27;12.00;;;5.50;;
42066;SDS011;27734;47.028;28.820;2023-05-18T03:33:56;12.23;;;5.00;;
42066;SDS011;27734;47.028;28.820;2023-05-18T03:36:25;14.17;;;5.80;;
42066;SDS011;27734;47.028;28.820;2023-05-18T03:38:54;16.80;;;5.13;;
42066;SDS011;27734;47.028;28.820;2023-05-18T03:41:23;14.60;;;6.13;;
42066;SDS011;27734;47.028;28.820;2023-05-18T03:43:53;11.77;;;4.90;;
42066;SDS011;27734;47.028;28.820;2023-05-18T03:46:22;13.70;;;5.33;;
42066;SDS011;27734;47.028;28.820;2023-05-18T03:48:51;12.13;;;5.50;;
42066;SDS011;27734;47.028;28.820;2023-05-18T03:51:22;10.17;;;4.90;;
42066;SDS011;27734;47.028;28.820;2023-05-18T03:53:52;10.43;;;4.83;;
42066;SDS011;27734;47.028;28.820;2023-05-18T03:56:21;13.53;;;5.30;;
42066;SDS011;27734;47.028;28.820;2023-05-18T03:58:49;14.03;;;5.13;;
42066;SDS011;27734;47.028;28.820;2023-05-18T04:01:18;10.95;;;5.60;;
42066;SDS011;27734;47.028;28.820;2023-05-18T04:03:50;13.25;;;5.35;;
42066;SDS011;27734;47.028;28.820;2023-05-18T04:06:22;11.93;;;5.60;;
42066;SDS011;27734;47.028;28.820;2023-05-18T04:08:52;12.70;;;5.20;;
42066;SDS011;27734;47.028;28.820;2023-05-18T04:11:20;14.73;;;5.67;;
42066;SDS011;27734;47.028;28.820;2023-05-18T04:13:49;11.67;;;5.03;;
42066;SDS011;27734;47.028;28.820;2023-05-18T04:16:18;15.77;;;5.10;;
42066;SDS011;27734;47.028;28.820;2023-05-18T04:18:47;13.30;;;5.20;;
42066;SDS011;27734;47.028;28.820;2023-05-18T04:21:16;13.67;;;5.07;;
42066;SDS011;27734;47.028;28.820;2023-05-18T04:26:40;17.93;;;5.33;;
42066;SDS011;27734;47.028;28.820;2023-05-18T04:29:09;15.27;;;4.53;;
42066;SDS011;27734;47.028;28.820;2023-05-18T04:31:39;14.20;;;4.80;;
42066;SDS011;27734;47.028;28.820;2023-05-18T04:34:10;14.60;;;4.73;;
42066;SDS011;27734;47.028;28.820;2023-05-18T04:36:39;13.17;;;5.10;;
42066;SDS011;27734;47.028;28.820;2023-05-18T04:39:10;13.40;;;5.57;;
42066;SDS011;27734;47.028;28.820;2023-05-18T04:41:40;11.43;;;5.23;;
42066;SDS011;27734;47.028;28.820;2023-05-18T04:44:09;12.40;;;4.50;;
42066;SDS011;27734;47.028;28.820;2023-05-18T04:46:39;12.17;;;4.47;;
42066;SDS011;27734;47.028;28.820;2023-05-18T04:49:09;15.70;;;4.65;;
42066;SDS011;27734;47.028;28.820;2023-05-18T04:51:37;12.60;;;4.73;;
42066;SDS011;27734;47.028;28.820;2023-05-18T04:54:08;12.80;;;5.17;;
42066;SDS011;27734;47.028;28.820;2023-05-18T04:56:39;17.63;;;4.93;;
42066;SDS011;27734;47.028;28.820;2023-05-18T04:59:08;17.30;;;5.03;;
42066;SDS011;27734;47.028;28.820;2023-05-18T05:01:37;16.63;;;4.67;;
42066;SDS011;27734;47.028;28.820;2023-05-18T05:04:05;10.40;;;4.63;;
42066;SDS011;27734;47.028;28.820;2023-05-18T05:06:34;12.10;;;5.10;;
42066;SDS011;27734;47.028;28.820;2023-05-18T05:09:03;16.63;;;4.97;;
42066;SDS011;27734;47.028;28.820;2023-05-18T05:11:33;13.33;;;4.80;;
42066;SDS011;27734;47.028;28.820;2023-05-18T05:14:02;11.77;;;4.70;;
42066;SDS011;27734;47.028;28.820;2023-05-18T05:16:31;13.73;;;4.80;;
42066;SDS011;27734;47.028;28.820;2023-05-18T05:18:59;14.00;;;4.60;;
42066;SDS011;27734;47.028;28.820;2023-05-18T05:21:29;16.40;;;4.40;;
42066;SDS011;27734;47.028;28.820;2023-05-18T05:23:58;15.63;;;4.57;;
42066;SDS011;27734;47.028;28.820;2023-05-18T05:26:31;11.47;;;4.20;;
42066;SDS011;27734;47.028;28.820;2023-05-18T05:29:02;9.50;;;4.43;;
42066;SDS011;27734;47.028;28.820;2023-05-18T05:31:31;11.23;;;4.60;;
42066;SDS011;27734;47.028;28.820;2023-05-18T05:34:00;13.03;;;4.30;;
42066;SDS011;27734;47.028;28.820;2023-05-18T05:36:30;13.13;;;4.70;;
42066;SDS011;27734;47.028;28.820;2023-05-18T05:38:59;12.53;;;4.60;;
42066;SDS011;27734;47.028;28.820;2023-05-18T05:41:28;10.30;;;3.60;;
42066;SDS011;27734;47.028;28.820;2023-05-18T05:43:57;11.27;;;3.57;;
42066;SDS011;27734;47.028;28.820;2023-05-18T05:46:26;12.00;;;3.90;;
42066;SDS011;27734;47.028;28.820;2023-05-18T05:48:56;5.10;;;3.10;;
42066;SDS011;27734;47.028;28.820;2023-05-18T05:51:27;7.60;;;3.30;;
42066;SDS011;27734;47.028;28.820;2023-05-18T05:53:58;9.00;;;3.83;;
42066;SDS011;27734;47.028;28.820;2023-05-18T05:56:27;7.97;;;3.33;;
42066;SDS011;27734;47.028;28.820;2023-05-18T05:58:56;9.37;;;3.60;;
42066;SDS011;27734;47.028;28.820;2023-05-18T06:01:25;5.97;;;3.33;;
42066;SDS011;27734;47.028;28.820;2023-05-18T06:03:56;9.17;;;3.33;;
42066;SDS011;27734;47.028;28.820;2023-05-18T06:06:25;9.67;;;3.70;;
42066;SDS011;27734;47.028;28.820;2023-05-18T06:11:30;7.97;;;3.40;;
42066;SDS011;27734;47.028;28.820;2023-05-18T06:14:08;8.30;;;4.03;;
42066;SDS011;27734;47.028;28.820;2023-05-18T06:16:37;8.73;;;4.10;;
42066;SDS011;27734;47.028;28.820;2023-05-18T06:19:05;12.63;;;3.80;;
42066;SDS011;27734;47.028;28.820;2023-05-18T06:21:35;10.77;;;3.73;;
42066;SDS011;27734;47.028;28.820;2023-05-18T06:24:11;7.03;;;3.50;;
42066;SDS011;27734;47.028;28.820;2023-05-18T06:27:20;8.37;;;3.40;;
42066;SDS011;27734;47.028;28.820;2023-05-18T06:30:36;7.47;;;3.43;;
42066;SDS011;27734;47.028;28.820;2023-05-18T06:33:15;7.93;;;3.30;;
42066;SDS011;27734;47.028;28.820;2023-05-18T06:35:52;7.33;;;3.50;;
42066;SDS011;27734;47.028;28.820;2023-05-18T06:38:22;7.63;;;3.33;;
42066;SDS011;27734;47.028;28.820;2023-05-18T06:43:42;7.07;;;3.00;;
42066;SDS011;27734;47.028;28.820;2023-05-18T06:46:22;8.83;;;3.43;;
42066;SDS011;27734;47.028;28.820;2023-05-18T06:49:03;7.20;;;3.13;;
42066;SDS011;27734;47.028;28.820;2023-05-18T06:51:33;10.30;;;3.50;;
42066;SDS011;27734;47.028;28.820;2023-05-18T06:54:09;6.20;;;3.20;;
42066;SDS011;27734;47.028;28.820;2023-05-18T06:56:45;9.20;;;3.13;;
42066;SDS011;27734;47.028;28.820;2023-05-18T06:59:17;10.73;;;3.13;;
42066;SDS011;27734;47.028;28.820;2023-05-18T07:01:49;9.65;;;3.30;;
42066;SDS011;27734;47.028;28.820;2023-05-18T07:04:18;10.83;;;3.00;;
42066;SDS011;27734;47.028;28.820;2023-05-18T07:06:47;6.70;;;3.07;;
42066;SDS011;27734;47.028;28.820;2023-05-18T07:09:32;6.23;;;3.23;;
42066;SDS011;27734;47.028;28.820;2023-05-18T07:12:01;8.33;;;3.40;;
42066;SDS011;27734;47.028;28.820;2023-05-18T07:17:06;7.03;;;2.73;;
42066;SDS011;27734;47.028;28.820;2023-05-18T07:19:42;8.43;;;3.00;;
42066;SDS011;27734;47.028;28.820;2023-05-18T07:22:15;7.67;;;3.03;;
42066;SDS011;27734;47.028;28.820;2023-05-18T07:24:48;6.63;;;2.83;;
42066;SDS011;27734;47.028;28.820;2023-05-18T07:27:30;7.00;;;3.03;;
42066;SDS011;27734;47.028;28.820;2023-05-18T07:30:02;9.17;;;3.10;;
42066;SDS011;27734;47.028;28.820;2023-05-18T07:32:34;10.57;;;3.57;;
42066;SDS011;27734;47.028;28.820;2023-05-18T07:35:07;7.60;;;3.00;;
42066;SDS011;27734;47.028;28.820;2023-05-18T07:37:38;8.87;;;3.07;;
42066;SDS011;27734;47.028;28.820;2023-05-18T07:40:09;7.03;;;3.17;;
42066;SDS011;27734;47.028;28.820;2023-05-18T07:42:42;11.83;;;3.47;;
42066;SDS011;27734;47.028;28.820;2023-05-18T07:45:17;8.60;;;3.60;;
42066;SDS011;27734;47.028;28.820;2023-05-18T07:47:50;5.40;;;3.40;;
42066;SDS011;27734;47.028;28.820;2023-05-18T07:50:48;8.23;;;3.20;;
42066;SDS011;27734;47.028;28.820;2023-05-18T07:53:17;7.13;;;2.97;;
42066;SDS011;27734;47.028;28.820;2023-05-18T07:55:49;10.63;;;3.23;;
42066;SDS011;27734;47.028;28.820;2023-05-18T07:58:18;6.17;;;2.93;;
42066;SDS011;27734;47.028;28.820;2023-05-18T08:00:47;6.10;;;3.03;;
42066;SDS011;27734;47.028;28.820;2023-05-18T08:03:15;7.10;;;3.17;;
42066;SDS011;27734;47.028;28.820;2023-05-18T08:05:46;6.73;;;3.20;;
42066;SDS011;27734;47.028;28.820;2023-05-18T08:08:17;9.43;;;3.10;;
42066;SDS011;27734;47.028;28.820;2023-05-18T08:10:50;9.97;;;3.40;;
42066;SDS011;27734;47.028;28.820;2023-05-18T08:13:19;6.37;;;3.10;;
42066;SDS011;27734;47.028;28.820;2023-05-18T08:15:48;8.93;;;3.10;;
42066;SDS011;27734;47.028;28.820;2023-05-18T08:18:22;7.27;;;3.30;;
42066;SDS011;27734;47.028;28.820;2023-05-18T08:20:52;10.10;;;3.43;;
42066;SDS011;27734;47.028;28.820;2023-05-18T08:26:31;5.07;;;3.10;;
42066;SDS011;27734;47.028;28.820;2023-05-18T08:29:00;9.23;;;3.37;;
42066;SDS011;27734;47.028;28.820;2023-05-18T08:31:40;6.03;;;3.63;;
42066;SDS011;27734;47.028;28.820;2023-05-18T08:34:15;8.93;;;3.60;;
42066;SDS011;27734;47.028;28.820;2023-05-18T08:36:44;7.53;;;3.60;;
42066;SDS011;27734;47.028;28.820;2023-05-18T08:39:13;5.90;;;3.87;;
42066;SDS011;27734;47.028;28.820;2023-05-18T08:41:49;9.70;;;3.80;;
42066;SDS011;27734;47.028;28.820;2023-05-18T08:44:32;9.27;;;3.80;;
42066;SDS011;27734;47.028;28.820;2023-05-18T08:47:07;9.17;;;3.77;;
42066;SDS011;27734;47.028;28.820;2023-05-18T08:49:36;8.47;;;3.80;;
42066;SDS011;27734;47.028;28.820;2023-05-18T08:52:07;10.67;;;4.20;;
42066;SDS011;27734;47.028;28.820;2023-05-18T08:54:41;11.23;;;4.17;;
42066;SDS011;27734;47.028;28.820;2023-05-18T08:57:11;9.27;;;4.10;;
42066;SDS011;27734;47.028;28.820;2023-05-18T08:59:46;11.97;;;4.33;;
42066;SDS011;27734;47.028;28.820;2023-05-18T09:02:21;9.10;;;4.20;;
42066;SDS011;27734;47.028;28.820;2023-05-18T09:04:53;10.87;;;4.33;;
42066;SDS011;27734;47.028;28.820;2023-05-18T09:07:23;12.43;;;4.50;;
42066;SDS011;27734;47.028;28.820;2023-05-18T09:09:57;10.50;;;4.57;;
42066;SDS011;27734;47.028;28.820;2023-05-18T09:12:30;9.98;;;4.70;;
42066;SDS011;27734;47.028;28.820;2023-05-18T09:15:06;9.20;;;4.20;;
42066;SDS011;27734;47.028;28.820;2023-05-18T09:17:38;8.35;;;4.50;;
42066;SDS011;27734;47.028;28.820;2023-05-18T09:20:08;11.67;;;4.93;;
42066;SDS011;27734;47.028;28.820;2023-05-18T09:22:39;11.87;;;4.77;;
42066;SDS011;27734;47.028;28.820;2023-05-18T09:25:17;7.47;;;4.70;;
42066;SDS011;27734;47.028;28.820;2023-05-18T09:30:27;10.43;;;4.90;;
42066;SDS011;27734;47.028;28.820;2023-05-18T09:33:01;11.03;;;4.73;;
42066;SDS011;27734;47.028;28.820;2023-05-18T09:35:31;11.05;;;5.10;;
42066;SDS011;27734;47.028;28.820;2023-05-18T09:41:24;11.47;;;5.57;;
42066;SDS011;27734;47.028;28.820;2023-05-18T09:43:59;11.93;;;5.10;;
42066;SDS011;27734;47.028;28.820;2023-05-18T09:46:48;10.70;;;5.30;;
42066;SDS011;27734;47.028;28.820;2023-05-18T09:52:19;11.53;;;5.70;;
42066;SDS011;27734;47.028;28.820;2023-05-18T09:57:41;10.53;;;5.30;;
42066;SDS011;27734;47.028;28.820;2023-05-18T10:00:19;12.13;;;5.47;;
42066;SDS011;27734;47.028;28.820;2023-05-18T10:06:15;13.17;;;5.20;;
42066;SDS011;27734;47.028;28.820;2023-05-18T10:08:46;10.73;;;5.00;;
42066;SDS011;27734;47.028;28.820;2023-05-18T10:11:21;10.23;;;5.30;;
42066;SDS011;27734;47.028;28.820;2023-05-18T10:13:53;11.53;;;5.10;;
42066;SDS011;27734;47.028;28.820;2023-05-18T10:16:23;11.83;;;5.30;;
42066;SDS011;27734;47.028;28.820;2023-05-18T10:19:07;12.30;;;5.03;;
42066;SDS011;27734;47.028;28.820;2023-05-18T10:21:39;10.23;;;4.87;;
42066;SDS011;27734;47.028;28.820;2023-05-18T10:24:09;9.30;;;5.20;;
42066;SDS011;27734;47.028;28.820;2023-05-18T10:26:44;12.00;;;5.10;;
42066;SDS011;27734;47.028;28.820;2023-05-18T10:29:15;10.18;;;5.10;;
42066;SDS011;27734;47.028;28.820;2023-05-18T10:31:45;10.57;;;5.03;;
42066;SDS011;27734;47.028;28.820;2023-05-18T10:34:30;10.20;;;5.00;;
42066;SDS011;27734;47.028;28.820;2023-05-18T10:37:01;14.73;;;5.47;;
42066;SDS011;27734;47.028;28.820;2023-05-18T10:39:34;8.27;;;4.70;;
42066;SDS011;27734;47.028;28.820;2023-05-18T10:42:05;11.80;;;5.37;;
42066;SDS011;27734;47.028;28.820;2023-05-18T10:44:40;7.53;;;4.90;;
42066;SDS011;27734;47.028;28.820;2023-05-18T10:47:15;11.70;;;4.87;;
42066;SDS011;27734;47.028;28.820;2023-05-18T10:49:46;16.10;;;5.10;;
42066;SDS011;27734;47.028;28.820;2023-05-18T10:52:16;10.23;;;5.17;;
42066;SDS011;27734;47.028;28.820;2023-05-18T10:54:47;9.67;;;5.00;;
42066;SDS011;27734;47.028;28.820;2023-05-18T10:57:17;9.17;;;5.07;;
42066;SDS011;27734;47.028;28.820;2023-05-18T10:59:50;7.83;;;4.90;;
42066;SDS011;27734;47.028;28.820;2023-05-18T11:02:19;13.90;;;5.33;;
42066;SDS011;27734;47.028;28.820;2023-05-18T11:04:48;11.40;;;5.77;;
42066;SDS011;27734;47.028;28.820;2023-05-18T11:07:19;10.37;;;5.50;;
42066;SDS011;27734;47.028;28.820;2023-05-18T11:09:55;12.20;;;5.90;;
42066;SDS011;27734;47.028;28.820;2023-05-18T11:12:30;10.07;;;5.67;;
42066;SDS011;27734;47.028;28.820;2023-05-18T11:15:01;12.73;;;6.37;;
42066;SDS011;27734;47.028;28.820;2023-05-18T11:17:33;11.53;;;6.20;;
42066;SDS011;27734;47.028;28.820;2023-05-18T11:20:15;11.83;;;6.43;;
42066;SDS011;27734;47.028;28.820;2023-05-18T11:22:45;11.97;;;6.10;;
42066;SDS011;27734;47.028;28.820;2023-05-18T11:25:37;12.20;;;6.43;;
42066;SDS011;27734;47.028;28.820;2023-05-18T11:28:15;8.90;;;5.90;;
42066;SDS011;27734;47.028;28.820;2023-05-18T11:30:49;12.15;;;6.40;;
42066;SDS011;27734;47.028;28.820;2023-05-18T11:33:23;11.00;;;6.20;;
42066;SDS011;27734;47.028;28.820;2023-05-18T11:36:02;14.23;;;6.77;;
42066;SDS011;27734;47.028;28.820;2023-05-18T11:38:49;13.17;;;6.53;;
42066;SDS011;27734;47.028;28.820;2023-05-18T11:41:26;11.60;;;6.47;;
42066;SDS011;27734;47.028;28.820;2023-05-18T11:44:13;13.77;;;6.30;;
42066;SDS011;27734;47.028;28.820;2023-05-18T11:46:53;12.67;;;6.13;;
42066;SDS011;27734;47.028;28.820;2023-05-18T11:49:28;12.60;;;6.77;;
42066;SDS011;27734;47.028;28.820;2023-05-18T11:52:01;13.32;;;6.70;;
42066;SDS011;27734;47.028;28.820;2023-05-18T11:54:39;14.17;;;7.30;;
42066;SDS011;27734;47.028;28.820;2023-05-18T11:57:12;13.37;;;7.23;;
42066;SDS011;27734;47.028;28.820;2023-05-18T11:59:44;12.40;;;7.30;;
42066;SDS011;27734;47.028;28.820;2023-05-18T12:02:19;14.15;;;7.25;;
42066;SDS011;27734;47.028;28.820;2023-05-18T12:04:53;16.97;;;7.60;;
42066;SDS011;27734;47.028;28.820;2023-05-18T12:07:27;14.83;;;7.73;;
42066;SDS011;27734;47.028;28.820;2023-05-18T12:10:00;14.00;;;7.57;;
42066;SDS011;27734;47.028;28.820;2023-05-18T12:12:31;17.20;;;7.83;;
42066;SDS011;27734;47.028;28.820;2023-05-18T12:15:09;17.47;;;7.80;;
42066;SDS011;27734;47.028;28.820;2023-05-18T12:17:41;13.23;;;7.37;;
42066;SDS011;27734;47.028;28.820;2023-05-18T12:20:12;16.43;;;7.70;;
42066;SDS011;27734;47.028;28.820;2023-05-18T12:22:45;14.33;;;8.10;;
42066;SDS011;27734;47.028;28.820;2023-05-18T12:25:16;13.30;;;7.50;;
42066;SDS011;27734;47.028;28.820;2023-05-18T12:27:47;11.70;;;7.40;;
42066;SDS011;27734;47.028;28.820;2023-05-18T12:30:19;12.77;;;7.27;;
42066;SDS011;27734;47.028;28.820;2023-05-18T12:32:51;15.33;;;7.67;;
42066;SDS011;27734;47.028;28.820;2023-05-18T12:35:24;14.20;;;7.67;;
42066;SDS011;27734;47.028;28.820;2023-05-18T12:37:55;17.37;;;7.70;;
42066;SDS011;27734;47.028;28.820;2023-05-18T12:40:33;15.00;;;7.70;;
42066;SDS011;27734;47.028;28.820;2023-05-18T12:43:19;16.02;;;8.03;;
42066;SDS011;27734;47.028;28.820;2023-05-18T12:45:48;17.43;;;7.90;;
42066;SDS011;27734;47.028;28.820;2023-05-18T12:48:17;13.23;;;7.73;;
42066;SDS011;27734;47.028;28.820;2023-05-18T12:50:58;16.73;;;8.50;;
42066;SDS011;27734;47.028;28.820;2023-05-18T12:53:39;15.23;;;7.73;;
42066;SDS011;27734;47.028;28.820;2023-05-18T12:56:09;15.60;;;8.63;;
42066;SDS011;27734;47.028;28.820;2023-05-18T12:58:40;15.00;;;8.20;;
42066;SDS011;27734;47.028;28.820;2023-05-18T13:01:22;16.50;;;7.00;;
42066;SDS011;27734;47.028;28.820;2023-05-18T13:03:55;17.93;;;8.20;;
42066;SDS011;27734;47.028;28.820;2023-05-18T13:06:28;14.20;;;7.80;;
42066;SDS011;27734;47.028;28.820;2023-05-18T13:08:59;16.80;;;8.00;;
42066;SDS011;27734;47.028;28.820;2023-05-18T13:11:28;14.90;;;7.40;;
42066;SDS011;27734;47.028;28.820;2023-05-18T13:13:58;13.10;;;7.50;;
42066;SDS011;27734;47.028;28.820;2023-05-18T13:16:36;15.93;;;8.33;;
42066;SDS011;27734;47.028;28.820;2023-05-18T13:19:08;12.45;;;7.50;;
42066;SDS011;27734;47.028;28.820;2023-05-18T13:21:38;17.40;;;8.03;;
42066;SDS011;27734;47.028;28.820;2023-05-18T13:24:07;15.53;;;8.00;;
42066;SDS011;27734;47.028;28.820;2023-05-18T13:26:36;15.37;;;7.67;;
42066;SDS011;27734;47.028;28.820;2023-05-18T13:29:06;13.33;;;8.10;;
42066;SDS011;27734;47.028;28.820;2023-05-18T13:31:37;14.07;;;7.40;;
42066;SDS011;27734;47.028;28.820;2023-05-18T13:34:14;14.60;;;7.73;;
42066;SDS011;27734;47.028;28.820;2023-05-18T13:36:52;13.60;;;7.40;;
42066;SDS011;27734;47.028;28.820;2023-05-18T13:39:32;15.73;;;7.57;;
42066;SDS011;27734;47.028;28.820;2023-05-18T13:42:14;14.93;;;7.67;;
42066;SDS011;27734;47.028;28.820;2023-05-18T13:44:48;15.03;;;7.35;;
42066;SDS011;27734;47.028;28.820;2023-05-18T13:49:52;20.13;;;7.87;;
42066;SDS011;27734;47.028;28.820;2023-05-18T13:52:25;15.10;;;7.33;;
42066;SDS011;27734;47.028;28.820;2023-05-18T13:55:05;17.70;;;7.80;;
42066;SDS011;27734;47.028;28.820;2023-05-18T13:57:47;14.47;;;7.43;;
42066;SDS011;27734;47.028;28.820;2023-05-18T14:00:20;19.13;;;8.10;;
42066;SDS011;27734;47.028;28.820;2023-05-18T14:02:50;14.50;;;7.80;;
42066;SDS011;27734;47.028;28.820;2023-05-18T14:05:20;16.07;;;7.73;;
42066;SDS011;27734;47.028;28.820;2023-05-18T14:07:49;18.10;;;7.70;;
42066;SDS011;27734;47.028;28.820;2023-05-18T14:10:19;16.37;;;8.00;;
42066;SDS011;27734;47.028;28.820;2023-05-18T14:12:48;17.20;;;8.03;;
42066;SDS011;27734;47.028;28.820;2023-05-18T14:15:19;20.07;;;7.87;;
42066;SDS011;27734;47.028;28.820;2023-05-18T14:17:48;13.53;;;7.60;;
42066;SDS011;27734;47.028;28.820;2023-05-18T14:20:19;16.07;;;8.13;;
42066;SDS011;27734;47.028;28.820;2023-05-18T14:22:48;13.80;;;7.17;;
42066;SDS011;27734;47.028;28.820;2023-05-18T14:25:18;13.63;;;6.97;;
42066;SDS011;27734;47.028;28.820;2023-05-18T14:27:47;16.83;;;8.37;;
42066;SDS011;27734;47.028;28.820;2023-05-18T14:30:17;15.00;;;7.80;;
42066;SDS011;27734;47.028;28.820;2023-05-18T14:32:45;17.77;;;8.77;;
42066;SDS011;27734;47.028;28.820;2023-05-18T14:35:14;15.27;;;7.80;;
42066;SDS011;27734;47.028;28.820;2023-05-18T14:37:43;17.27;;;8.23;;
42066;SDS011;27734;47.028;28.820;2023-05-18T14:40:11;14.57;;;7.97;;
42066;SDS011;27734;47.028;28.820;2023-05-18T14:42:40;13.73;;;7.80;;
42066;SDS011;27734;47.028;28.820;2023-05-18T14:45:12;18.90;;;7.83;;
42066;SDS011;27734;47.028;28.820;2023-05-18T14:47:43;15.50;;;7.50;;
42066;SDS011;27734;47.028;28.820;2023-05-18T14:50:11;13.40;;;7.87;;
42066;SDS011;27734;47.028;28.820;2023-05-18T14:52:40;15.53;;;8.50;;
42066;SDS011;27734;47.028;28.820;2023-05-18T14:55:09;16.40;;;7.73;;
42066;SDS011;27734;47.028;28.820;2023-05-18T14:57:41;16.53;;;7.87;;
42066;SDS011;27734;47.028;28.820;2023-05-18T15:00:12;15.40;;;7.73;;
42066;SDS011;27734;47.028;28.820;2023-05-18T15:02:42;18.33;;;7.83;;
42066;SDS011;27734;47.028;28.820;2023-05-18T15:05:14;16.25;;;7.65;;
42066;SDS011;27734;47.028;28.820;2023-05-18T15:07:43;16.37;;;8.17;;
42066;SDS011;27734;47.028;28.820;2023-05-18T15:10:11;16.27;;;7.80;;
42066;SDS011;27734;47.028;28.820;2023-05-18T15:12:40;15.97;;;8.07;;
42066;SDS011;27734;47.028;28.820;2023-05-18T15:15:09;15.03;;;7.60;;
42066;SDS011;27734;47.028;28.820;2023-05-18T15:17:38;17.93;;;8.00;;
42066;SDS011;27734;47.028;28.820;2023-05-18T15:20:08;15.20;;;8.07;;
42066;SDS011;27734;47.028;28.820;2023-05-18T15:22:37;19.45;;;8.20;;
42066;SDS011;27734;47.028;28.820;2023-05-18T15:25:07;16.57;;;8.20;;
42066;SDS011;27734;47.028;28.820;2023-05-18T15:27:37;16.50;;;8.33;;